Time;durP1;ratioP1;P1;durP2;ratioP2;P2;SDS_P1;SDS_P2;PMS_P1;PMS_P2;Temp;Humidity;BMP_temperature;BMP_pressure;BME280_temperature;BME280_humidity;BME280_pressure;Samples;Min_cycle;Max_cycle;Signal;HPM_P1;HPM_P2
2021/11/17 02:28:10;;;;;;;;;53.75;40.00;;;;;10.87;75.57;101413.47;4954685;28;45688;-81
2021/11/17 02:30:47;;;;;;;;;53.25;38.25;;;;;10.87;75.38;101395.97;4955035;28;45662;-79
2021/11/17 02:36:42;;;;;;;;;55.00;43.00;;;;;10.88;75.30;101387.19;4954534;28;46273;-79
2021/11/17 02:39:33;;;;;;;;;44.00;36.75;;;;;10.94;75.15;101404.31;4954058;28;45562;-79
2021/11/17 02:42:17;;;;;;;;;45.50;37.00;;;;;10.99;75.14;101388.31;4949289;28;46051;-82
2021/11/17 02:44:43;;;;;;;;;51.25;37.75;;;;;11.02;75.03;101369.75;4995344;28;46539;-81
2021/11/17 02:47:55;;;;;;;;;53.33;40.67;;;;;11.02;74.93;101372.38;4995572;28;45664;-83
2021/11/17 02:50:23;;;;;;;;;47.75;38.50;;;;;11.04;74.95;101381.00;4984359;28;45570;-82
2021/11/17 02:53:20;;;;;;;;;55.25;40.75;;;;;11.03;74.95;101393.28;4995391;28;45600;-82
2021/11/17 02:55:54;;;;;;;;;45.25;36.50;;;;;11.01;75.12;101403.03;4995048;28;45509;-79
2021/11/17 02:58:22;;;;;;;;;45.75;36.50;;;;;10.98;75.08;101407.59;4993487;28;48828;-80
2021/11/17 03:01:03;;;;;;;;;55.50;40.50;;;;;10.95;75.02;101398.16;4995275;28;45586;-84
2021/11/17 03:03:34;;;;;;;;;47.50;38.50;;;;;10.93;75.10;101406.09;4995171;28;45543;-82
2021/11/17 03:06:24;;;;;;;;;56.00;44.00;;;;;10.91;75.04;101405.34;4994982;28;46591;-80
2021/11/17 03:09:08;;;;;;;;;52.75;39.50;;;;;10.84;75.07;101413.69;4994913;28;45616;-79
2021/11/17 03:12:00;;;;;;;;;62.75;41.75;;;;;10.82;75.37;101411.13;4993077;28;45851;-82
2021/11/17 03:14:34;;;;;;;;;50.00;39.50;;;;;10.83;75.31;101418.06;4995127;28;45723;-82
2021/11/17 03:20:50;;;;;;;;;56.25;37.00;;;;;10.78;75.48;101416.66;4996902;28;45867;-83
2021/11/17 03:23:34;;;;;;;;;45.50;38.50;;;;;10.77;75.52;101433.31;5001136;28;45544;-83
2021/11/17 03:26:24;;;;;;;;;52.50;41.00;;;;;10.79;75.57;101444.56;5019516;28;45474;-82
2021/11/17 03:29:36;;;;;;;;;49.50;40.50;;;;;10.73;75.54;101456.25;5018276;28;45676;-82
2021/11/17 03:35:29;;;;;;;;;46.00;38.25;;;;;10.65;75.81;101455.81;4953211;28;45800;-82
2021/11/17 03:38:18;;;;;;;;;54.00;42.50;;;;;10.60;75.89;101465.72;4953257;28;45683;-80
2021/11/17 03:40:46;;;;;;;;;50.25;41.50;;;;;10.60;76.00;101472.75;4952944;28;47369;-81
2021/11/17 03:43:40;;;;;;;;;46.75;39.75;;;;;10.62;75.94;101463.88;4952880;28;46155;-82
2021/11/17 03:46:37;;;;;;;;;60.25;42.25;;;;;10.63;76.02;101451.63;4953317;28;45982;-82
2021/11/17 03:52:59;;;;;;;;;50.25;40.25;;;;;10.69;75.81;101453.91;4953130;28;46105;-80
2021/11/17 03:55:30;;;;;;;;;42.75;35.00;;;;;10.71;75.92;101463.34;4895589;29;46098;-80
2021/11/17 03:58:07;;;;;;;;;50.75;39.50;;;;;10.70;75.67;101463.41;4942638;28;45844;-79
2021/11/17 04:00:51;;;;;;;;;43.00;37.25;;;;;10.66;75.80;101465.38;4953705;28;45734;-81
2021/11/17 04:03:22;;;;;;;;;53.25;38.50;;;;;10.66;75.81;101473.25;4953313;28;46410;-79
2021/11/17 04:06:23;;;;;;;;;44.00;38.50;;;;;10.72;75.86;101470.28;4952662;28;46022;-77
2021/11/17 04:09:13;;;;;;;;;49.00;40.00;;;;;10.75;75.88;101461.38;5010965;28;45610;-77
2021/11/17 04:12:04;;;;;;;;;46.00;37.75;;;;;10.77;75.70;101475.25;5014152;28;45532;-81
2021/11/17 04:14:39;;;;;;;;;47.50;39.00;;;;;10.55;75.72;101454.66;5013814;28;45668;-79
2021/11/17 04:17:26;;;;;;;;;51.25;38.75;;;;;10.73;75.80;101486.84;5014047;28;46172;-78
2021/11/17 04:20:20;;;;;;;;;45.50;33.75;;;;;10.68;75.84;101491.50;5013667;28;45921;-79
2021/11/17 04:22:55;;;;;;;;;50.25;37.00;;;;;10.70;75.90;101498.34;4974273;28;46017;-78
2021/11/17 04:25:23;;;;;;;;;49.25;36.25;;;;;10.73;76.01;101503.41;4976537;28;46652;-78
2021/11/17 04:28:14;;;;;;;;;39.50;36.00;;;;;10.73;76.06;101510.44;4977701;28;46409;-78
2021/11/17 04:30:51;;;;;;;;;44.50;38.00;;;;;10.71;76.07;101505.28;4977732;28;45814;-77
2021/11/17 04:36:38;;;;;;;;;35.50;30.00;;;;;10.64;76.51;101508.31;4977876;28;46123;-78
2021/11/17 04:39:32;;;;;;;;;43.00;35.67;;;;;10.61;76.60;101506.72;4977557;28;45618;-78
2021/11/17 04:42:08;;;;;;;;;42.50;32.50;;;;;10.62;76.84;101511.03;4979487;28;45627;-78
2021/11/17 04:44:43;;;;;;;;;40.75;31.75;;;;;10.55;76.95;101496.59;4981595;28;45700;-79
2021/11/17 04:47:24;;;;;;;;;33.25;29.25;;;;;10.68;76.99;101510.69;4981510;28;46449;-77
2021/11/17 04:53:26;;;;;;;;;39.25;34.00;;;;;10.67;77.34;101509.00;4978411;28;45839;-78
2021/11/17 04:56:04;;;;;;;;;30.25;27.50;;;;;10.66;77.49;101511.72;4977515;28;45843;-77
2021/11/17 04:58:47;;;;;;;;;37.25;32.50;;;;;10.62;77.66;101507.59;4977224;28;46397;-78
2021/11/17 05:01:35;;;;;;;;;34.75;31.25;;;;;10.62;77.96;101500.56;4976971;28;45521;-80
2021/11/17 05:04:35;;;;;;;;;;;;;;;;;;;;;
2021/11/17 05:07:31;;;;;;;;;33.50;27.00;;;;;10.75;77.64;101490.22;4976439;28;68907;-80
2021/11/17 05:10:37;;;;;;;;;34.25;31.50;;;;;10.83;77.66;101496.72;4977536;28;46549;-80
2021/11/17 05:13:28;;;;;;;;;31.75;28.25;;;;;10.88;77.36;101501.69;4977301;28;46223;-79
2021/11/17 05:16:03;;;;;;;;;35.25;29.00;;;;;10.96;77.53;101498.63;4976782;28;45470;-79
2021/11/17 05:22:15;;;;;;;;;29.00;24.50;;;;;11.09;77.28;101513.53;5001346;28;45754;-77
2021/11/17 05:25:08;;;;;;;;;36.50;30.00;;;;;11.11;77.26;101503.81;5015665;28;46563;-80
2021/11/17 05:27:54;;;;;;;;;34.00;30.00;;;;;11.12;77.28;101502.84;5015791;28;45565;-78
2021/11/17 05:30:28;;;;;;;;;29.75;27.50;;;;;11.09;77.04;101507.44;5016228;28;45493;-79
2021/11/17 05:32:56;;;;;;;;;29.25;26.00;;;;;11.06;77.17;101499.78;5016144;28;45522;-79
2021/11/17 05:35:31;;;;;;;;;31.00;24.00;;;;;11.04;77.12;101505.09;5016046;28;46336;-79
2021/11/17 05:38:02;;;;;;;;;32.00;26.75;;;;;11.02;77.11;101490.38;5015725;28;45751;-79
2021/11/17 05:40:46;;;;;;;;;36.75;27.25;;;;;11.02;77.10;101493.00;5016058;28;45525;-82
2021/11/17 05:43:21;;;;;;;;;31.50;27.50;;;;;10.98;77.33;101488.88;5016299;28;45720;-82
2021/11/17 05:45:56;;;;;;;;;30.00;25.25;;;;;11.00;77.27;101500.13;4997919;28;47188;-80
2021/11/17 05:52:10;;;;;;;;;32.25;29.00;;;;;10.93;77.42;101490.00;5016110;28;45632;-79
2021/11/17 05:54:48;;;;;;;;;35.25;29.25;;;;;10.93;77.46;101500.47;4998302;28;47923;-78
2021/11/17 05:57:26;;;;;;;;;30.25;25.75;;;;;10.93;77.60;101492.63;5015617;28;46088;-82
2021/11/17 06:00:20;;;;;;;;;38.25;31.50;;;;;10.93;77.53;101490.00;5016156;28;45855;-81
2021/11/17 06:02:55;;;;;;;;;38.25;31.75;;;;;10.91;77.62;101489.22;4956369;28;45760;-78
2021/11/17 06:08:42;;;;;;;;;32.00;28.75;;;;;10.99;77.55;101482.69;4957849;28;46358;-79
2021/11/17 06:11:07;;;;;;;;;35.25;29.00;;;;;10.98;77.45;101483.63;4955879;28;45781;-79
2021/11/17 06:13:33;;;;;;;;;30.50;28.00;;;;;11.03;77.46;101486.81;4955893;28;45650;-80
2021/11/17 06:16:00;;;;;;;;;36.50;31.75;;;;;10.82;77.51;101455.69;4954900;28;47540;-82
2021/11/17 06:18:29;;;;;;;;;34.25;31.00;;;;;11.09;77.52;101483.84;4954676;28;46255;-81
2021/11/17 06:24:29;;;;;;;;;34.25;26.00;;;;;11.20;77.17;101481.44;4953102;28;45741;-80
2021/11/17 06:26:56;;;;;;;;;30.75;26.75;;;;;11.22;76.99;101480.41;4954562;28;45751;-80
2021/11/17 06:29:41;;;;;;;;;33.00;30.75;;;;;11.25;76.87;101488.09;4954424;28;46227;-80
2021/11/17 06:32:08;;;;;;;;;31.00;25.50;;;;;11.13;77.15;101461.75;4954453;28;45612;-80
2021/11/17 06:34:44;;;;;;;;;35.25;29.00;;;;;11.21;76.73;101478.72;4954337;28;45596;-82
2021/11/17 06:37:17;;;;;;;;;31.50;27.50;;;;;11.04;76.66;101462.31;4954230;28;45602;-79
2021/11/17 06:39:45;;;;;;;;;34.75;30.75;;;;;11.15;76.88;101480.88;4970997;28;46169;-79
2021/11/17 06:42:14;;;;;;;;;36.25;27.25;;;;;10.92;76.82;101435.88;4995334;28;45852;-80
2021/11/17 06:44:53;;;;;;;;;41.50;30.00;;;;;11.11;76.91;101482.00;4995578;28;45516;-82
2021/11/17 06:47:18;;;;;;;;;39.50;29.50;;;;;11.19;76.89;101487.59;4994381;28;45612;-80
2021/11/17 06:49:44;;;;;;;;;33.00;29.50;;;;;11.24;76.99;101496.03;4995064;28;45485;-83
2021/11/17 06:52:10;;;;;;;;;35.00;30.25;;;;;11.22;76.90;101495.31;4995482;28;45635;-81
2021/11/17 06:54:38;;;;;;;;;40.00;32.00;;;;;11.20;76.87;101505.88;4995433;28;45718;-78
2021/11/17 06:57:05;;;;;;;;;33.00;29.00;;;;;11.21;76.92;101527.72;4994833;28;46312;-79
2021/11/17 06:59:30;;;;;;;;;37.25;30.50;;;;;11.11;77.17;101514.31;4995435;28;46104;-84
2021/11/17 07:01:58;;;;;;;;;42.50;31.75;;;;;11.02;77.28;101503.47;4995751;28;45657;-79
2021/11/17 07:04:24;;;;;;;;;34.50;26.25;;;;;11.08;77.31;101526.72;4994894;28;45598;-82
2021/11/17 07:06:49;;;;;;;;;35.75;30.50;;;;;10.99;77.32;101516.78;4994956;28;46561;-77
2021/11/17 07:09:14;;;;;;;;;35.00;27.25;;;;;10.99;77.43;101543.00;4994787;28;45738;-83
2021/11/17 07:11:40;;;;;;;;;31.50;26.25;;;;;11.02;77.81;101555.94;4993699;28;45557;-84
2021/11/17 07:14:11;;;;;;;;;29.25;23.25;;;;;10.99;77.89;101561.38;4995349;28;45838;-80
2021/11/17 07:16:39;;;;;;;;;31.50;23.25;;;;;10.92;78.28;101547.75;4993903;28;47126;-82
2021/11/17 07:19:07;;;;;;;;;25.50;22.50;;;;;10.92;78.16;101556.47;4994971;28;46457;-82
2021/11/17 07:21:33;;;;;;;;;27.50;26.25;;;;;10.97;78.17;101550.97;4995223;28;45517;-83
2021/11/17 07:23:59;;;;;;;;;26.00;23.75;;;;;11.04;78.20;101554.91;5005979;28;45623;-80
2021/11/17 07:26:25;;;;;;;;;36.50;32.25;;;;;11.05;78.17;101568.88;5020021;28;46473;-81
2021/11/17 07:28:51;;;;;;;;;34.75;29.75;;;;;11.08;78.14;101573.94;5019933;28;46373;-82
2021/11/17 07:31:17;;;;;;;;;30.00;23.75;;;;;11.08;78.15;101581.81;5019106;28;45732;-84
2021/11/17 07:33:43;;;;;;;;;33.50;25.75;;;;;11.07;78.21;101586.19;5015467;28;45684;-82
2021/11/17 07:39:29;;;;;;;;;31.75;26.50;;;;;11.09;78.23;101594.84;5015023;28;46051;-81
2021/11/17 07:41:55;;;;;;;;;29.50;26.50;;;;;11.03;78.15;101583.84;5014750;28;45770;-83
2021/11/17 07:44:22;;;;;;;;;32.75;28.25;;;;;11.10;78.14;101595.69;5014836;28;45435;-84
2021/11/17 07:46:52;;;;;;;;;30.25;25.50;;;;;11.10;78.19;101600.94;5015004;28;46363;-84
2021/11/17 07:49:19;;;;;;;;;32.00;27.00;;;;;11.03;78.38;101591.72;5014826;28;46163;-84
2021/11/17 07:51:46;;;;;;;;;37.75;29.75;;;;;11.10;78.33;101595.69;5014659;28;45670;-83
2021/11/17 07:54:13;;;;;;;;;33.25;28.75;;;;;10.97;78.26;101576.31;5018786;28;45816;-86
2021/11/17 07:56:41;;;;;;;;;26.00;21.75;;;;;11.07;78.51;101612.44;5015008;28;46283;-83
2021/11/17 07:59:10;;;;;;;;;30.00;24.50;;;;;10.98;78.69;101597.22;5014885;28;46004;-82
2021/11/17 08:01:36;;;;;;;;;31.50;25.25;;;;;11.05;78.73;101609.06;5018479;28;45592;-84
2021/11/17 08:04:01;;;;;;;;;34.50;25.25;;;;;11.07;78.88;101606.31;5000782;28;45589;-83
2021/11/17 08:09:49;;;;;;;;;27.25;24.75;;;;;11.11;78.93;101611.34;5016608;28;46132;-82
2021/11/17 08:12:16;;;;;;;;;27.00;23.75;;;;;11.08;78.75;101608.03;5017248;28;45928;-84
2021/11/17 08:14:41;;;;;;;;;29.75;24.00;;;;;11.03;78.95;101608.28;4999850;28;45979;-84
2021/11/17 08:17:07;;;;;;;;;25.00;22.50;;;;;11.06;78.97;101600.28;4999481;28;46543;-83
2021/11/17 08:19:32;;;;;;;;;27.50;24.75;;;;;11.11;78.96;101611.34;5016968;28;47076;-84
2021/11/17 08:21:58;;;;;;;;;36.75;26.50;;;;;11.09;78.83;101618.44;5017311;28;45702;-84
2021/11/17 08:24:24;;;;;;;;;40.00;33.00;;;;;11.10;78.97;101617.50;5017285;28;45790;-83
2021/11/17 08:26:50;;;;;;;;;31.25;26.25;;;;;11.13;79.16;101619.09;5017530;28;47493;-83
2021/11/17 08:29:16;;;;;;;;;25.75;23.00;;;;;11.16;78.99;101611.06;5017718;28;46747;-84
2021/11/17 08:31:41;;;;;;;;;30.50;27.75;;;;;11.14;79.05;101615.56;5018399;28;45683;-85
2021/11/17 08:34:08;;;;;;;;;31.50;26.50;;;;;11.16;78.95;101622.41;5018284;28;45544;-82
2021/11/17 08:39:56;;;;;;;;;33.00;30.00;;;;;11.14;78.88;101613.78;5016899;28;45741;-81
2021/11/17 08:42:22;;;;;;;;;30.00;26.75;;;;;11.15;79.10;101619.88;5015479;28;45576;-81
2021/11/17 08:44:47;;;;;;;;;37.75;27.75;;;;;11.21;78.98;101623.00;5019187;28;45480;-82
2021/11/17 08:47:16;;;;;;;;;36.75;26.50;;;;;11.26;79.12;101625.34;5019818;28;48353;-82
2021/11/17 08:49:42;;;;;;;;;30.50;26.50;;;;;11.21;79.05;101617.75;5021388;28;46215;-80
2021/11/17 08:55:30;;;;;;;;;34.25;26.75;;;;;11.31;78.91;101639.03;5017450;28;45600;-82
2021/11/17 08:57:58;;;;;;;;;31.25;26.75;;;;;11.33;78.96;101634.56;5015805;28;47466;-80
2021/11/17 09:00:25;;;;;;;;;34.50;31.25;;;;;11.33;78.83;101624.06;5017183;28;46041;-78
2021/11/17 09:02:53;;;;;;;;;35.75;30.50;;;;;11.46;78.77;101640.78;4999388;28;45691;-82
2021/11/17 09:05:22;;;;;;;;;36.25;31.25;;;;;11.48;78.67;101645.94;5016887;28;45584;-81
2021/11/17 09:07:48;;;;;;;;;38.25;28.00;;;;;11.48;78.65;101638.06;5015994;28;47359;-81
2021/11/17 09:10:18;;;;;;;;;34.25;27.25;;;;;11.50;78.64;101644.91;5015535;28;47194;-82
2021/11/17 09:12:45;;;;;;;;;35.50;26.25;;;;;11.49;78.61;101629.25;4998442;28;45561;-80
2021/11/17 09:15:12;;;;;;;;;33.75;27.75;;;;;11.48;78.45;101631.03;4998996;28;45985;-80
2021/11/17 09:17:42;;;;;;;;;34.50;28.75;;;;;11.54;78.46;101638.56;4998646;28;47517;-81
2021/11/17 09:20:11;;;;;;;;;27.50;25.25;;;;;11.55;78.60;101648.09;5016028;28;47290;-83
2021/11/17 09:22:37;;;;;;;;;31.00;25.25;;;;;11.54;78.70;101641.19;5016834;28;45556;-81
2021/11/17 09:25:05;;;;;;;;;30.00;25.75;;;;;11.65;78.42;101651.06;5016589;28;45770;-83
2021/11/17 09:27:30;;;;;;;;;30.25;20.75;;;;;11.68;78.54;101656.97;5016891;28;46540;-80
2021/11/17 09:29:56;;;;;;;;;25.25;23.50;;;;;11.71;78.44;101655.94;5016718;28;45747;-80
2021/11/17 09:32:22;;;;;;;;;34.25;25.00;;;;;11.74;78.19;101663.66;5016137;28;45645;-82
2021/11/17 09:34:48;;;;;;;;;38.50;27.50;;;;;11.69;78.45;101655.19;5016254;28;45876;-79
2021/11/17 09:40:56;;;;;;;;;31.25;26.75;;;;;11.80;78.37;101651.94;5016125;28;46287;-81
2021/11/17 09:43:33;;;;;;;;;32.75;23.50;;;;;11.85;78.44;101661.25;5015919;28;45561;-79
2021/11/17 09:46:00;;;;;;;;;29.50;25.00;;;;;11.78;78.02;101638.91;4998174;28;45471;-80
2021/11/17 09:48:32;;;;;;;;;29.00;23.00;;;;;11.92;78.10;101672.22;5015777;28;46520;-82
2021/11/17 09:51:06;;;;;;;;;28.75;25.00;;;;;11.97;78.11;101678.06;5015861;28;46100;-82
2021/11/17 09:54:05;;;;;;;;;29.50;26.50;;;;;12.00;77.83;101669.97;5015498;28;46021;-79
2021/11/17 09:56:38;;;;;;;;;28.75;26.50;;;;;11.98;77.60;101675.34;5015956;28;45494;-82
2021/11/17 09:59:07;;;;;;;;;35.50;27.50;;;;;12.01;77.52;101688.28;5015552;28;45564;-79
2021/11/17 10:01:38;;;;;;;;;31.00;27.00;;;;;12.03;77.51;101682.94;5015471;28;46747;-78
2021/11/17 10:04:10;;;;;;;;;29.00;26.25;;;;;12.04;77.54;101684.59;5015405;28;45602;-77
2021/11/17 10:15:09;;;;;;;;;35.75;30.25;;;;;12.26;77.46;101686.78;4955104;28;45515;-81
2021/11/17 10:17:45;;;;;;;;;34.00;28.50;;;;;12.33;77.23;101683.72;4955715;28;45651;-84
2021/11/17 10:23:18;;;;;;;;;30.50;27.25;;;;;12.50;77.03;101693.19;4958414;28;45841;-80
2021/11/17 10:26:04;;;;;;;;;34.50;26.25;;;;;12.58;76.82;101685.66;4961592;28;45744;-82
2021/11/17 10:28:34;;;;;;;;;30.25;25.00;;;;;12.65;76.53;101688.75;4957507;28;45641;-78
2021/11/17 10:31:05;;;;;;;;;27.25;24.50;;;;;12.58;76.24;101681.25;4956292;28;46391;-81
2021/11/17 10:33:46;;;;;;;;;32.75;26.75;;;;;12.68;76.31;101692.06;4959205;28;46043;-80
2021/11/17 10:39:39;;;;;;;;;25.75;23.75;;;;;12.76;76.41;101697.66;4962480;28;45586;-80
2021/11/17 10:42:07;;;;;;;;;29.00;23.75;;;;;12.82;75.83;101699.06;4956840;28;46834;-78
2021/11/17 10:44:45;;;;;;;;;23.00;21.75;;;;;12.83;76.08;101693.72;4965363;28;46107;-75
2021/11/17 10:47:17;;;;;;;;;23.75;22.75;;;;;12.80;75.52;101693.03;5014572;28;45699;-78
2021/11/17 10:49:47;;;;;;;;;26.25;21.75;;;;;12.78;75.83;101685.28;5016848;28;45619;-80
2021/11/17 10:55:45;;;;;;;;;23.75;22.00;;;;;12.86;75.37;101688.25;5015074;28;46234;-81
2021/11/17 10:58:14;;;;;;;;;29.25;24.00;;;;;12.89;75.58;101685.44;5014406;28;45849;-78
2021/11/17 11:00:47;;;;;;;;;28.75;21.25;;;;;12.92;75.16;101676.50;5014342;28;45864;-78
2021/11/17 11:03:17;;;;;;;;;22.50;18.50;;;;;13.03;75.40;101684.56;5014007;28;46318;-80
2021/11/17 11:06:04;;;;;;;;;26.00;23.50;;;;;13.06;75.20;101675.63;5013763;28;47158;-80
2021/11/17 11:08:42;;;;;;;;;25.25;23.50;;;;;13.16;75.22;101687.28;5013881;28;45763;-83
2021/11/17 11:11:09;;;;;;;;;24.50;20.50;;;;;13.16;74.88;101674.97;5014133;28;46089;-76
2021/11/17 11:13:40;;;;;;;;;23.50;19.75;;;;;13.26;74.40;101688.38;5014042;28;47612;-78
2021/11/17 11:16:14;;;;;;;;;29.75;21.00;;;;;13.29;74.43;101685.53;5013662;28;46167;-81
2021/11/17 11:18:47;;;;;;;;;25.25;22.00;;;;;13.29;74.64;101686.38;5013739;28;45603;-80
2021/11/17 11:21:16;;;;;;;;;23.50;20.75;;;;;13.32;74.35;101683.56;5013705;28;45556;-83
2021/11/17 11:24:19;;;;;;;;;24.50;20.00;;;;;13.37;74.13;101683.25;5013478;28;46643;-81
2021/11/17 11:27:16;;;;;;;;;20.50;17.75;;;;;13.36;74.08;101673.66;4996805;28;46461;-80
2021/11/17 11:30:01;;;;;;;;;23.50;18.25;;;;;13.36;73.43;101665.75;5016594;28;45600;-77
2021/11/17 11:32:30;;;;;;;;;19.25;18.00;;;;;13.36;73.95;101666.63;5015158;28;45708;-77
2021/11/17 11:35:02;;;;;;;;;19.50;18.25;;;;;13.40;73.58;101669.88;5021307;28;47373;-79
2021/11/17 11:37:27;;;;;;;;;27.25;19.75;;;;;13.42;73.44;101668.00;5019726;28;46243;-79
2021/11/17 11:40:27;;;;;;;;;21.00;19.50;;;;;13.42;73.59;101666.22;5019895;28;45537;-77
2021/11/17 11:43:08;;;;;;;;;19.75;16.00;;;;;13.43;73.59;101674.97;5020526;28;45652;-82
2021/11/17 11:45:37;;;;;;;;;17.75;16.50;;;;;13.35;73.53;101666.72;5019991;28;47348;-80
2021/11/17 11:48:33;;;;;;;;;23.50;19.50;;;;;13.38;73.16;101663.88;5019402;28;48250;-81
2021/11/17 11:54:28;;;;;;;;;21.00;18.75;;;;;13.52;72.77;101684.88;5020473;28;45469;-79
2021/11/17 11:57:22;;;;;;;;;18.75;16.25;;;;;13.57;73.05;101677.50;5020681;28;46404;-76
2021/11/17 11:59:48;;;;;;;;;19.25;15.50;;;;;13.57;72.54;101674.88;5023135;28;46192;-77
2021/11/17 12:02:19;;;;;;;;;15.75;13.25;;;;;13.63;72.57;101671.84;5024245;28;45458;-78
2021/11/17 12:04:58;;;;;;;;;20.25;19.25;;;;;13.68;72.32;101666.25;5021634;28;45826;-77
2021/11/17 12:10:55;;;;;;;;;17.50;15.75;;;;;13.85;72.19;101656.28;5019141;28;46049;-83
2021/11/17 12:13:28;;;;;;;;;22.75;16.50;;;;;13.89;72.04;101643.72;5019232;28;45835;-78
2021/11/17 12:16:03;;;;;;;;;15.25;14.00;;;;;13.99;72.23;101655.31;5019435;28;45713;-81
2021/11/17 12:18:31;;;;;;;;;15.00;15.00;;;;;14.12;71.30;101661.44;5019052;28;46859;-79
2021/11/17 12:20:59;;;;;;;;;18.25;16.50;;;;;14.19;71.35;101656.59;5019666;28;46157;-81
2021/11/17 12:27:18;;;;;;;;;17.75;15.75;;;;;14.32;70.90;101669.75;5011674;28;45951;-80
2021/11/17 12:30:22;;;;;;;;;12.25;12.25;;;;;14.40;70.44;101665.69;5020150;28;45633;-84
2021/11/17 12:33:11;;;;;;;;;17.75;16.25;;;;;14.39;70.24;101656.09;4958282;28;45677;-80
2021/11/17 12:35:40;;;;;;;;;14.75;13.25;;;;;14.50;70.17;101666.72;4958748;28;45843;-81
2021/11/17 12:41:30;;;;;;;;;11.25;10.00;;;;;14.57;70.20;101675.91;4958748;28;45596;-83
2021/11/17 12:44:05;;;;;;;;;15.75;15.50;;;;;14.58;69.71;101676.72;4958629;28;46183;-81
2021/11/17 12:46:43;;;;;;;;;13.00;12.00;;;;;14.58;69.82;101684.63;4954386;28;45573;-77
2021/11/17 12:49:28;;;;;;;;;13.00;12.00;;;;;14.55;69.70;101664.59;4955412;28;45498;-76
2021/11/17 12:52:03;;;;;;;;;15.75;12.25;;;;;14.52;69.92;101677.97;4956069;28;46695;-77
2021/11/17 12:54:33;;;;;;;;;13.00;12.25;;;;;14.45;69.83;101673.28;4955965;28;46070;-78
2021/11/17 12:57:06;;;;;;;;;14.00;12.75;;;;;14.51;70.13;101678.97;4955768;28;45728;-77
2021/11/17 12:59:42;;;;;;;;;12.25;11.75;;;;;14.53;69.32;101686.75;4955891;28;45473;-78
2021/11/17 13:02:27;;;;;;;;;13.50;11.00;;;;;14.50;69.85;101671.16;4955219;28;45781;-78
2021/11/17 13:05:14;;;;;;;;;7.50;7.25;;;;;14.47;69.41;101668.72;4954435;28;46459;-78
2021/11/17 13:07:48;;;;;;;;;9.75;8.00;;;;;14.46;69.27;101659.13;5008687;28;45757;-78
2021/11/17 13:10:35;;;;;;;;;6.25;5.00;;;;;14.42;69.30;101669.03;5015815;28;45619;-79
2021/11/17 13:13:16;;;;;;;;;6.00;4.75;;;;;14.30;69.23;101660.16;5015826;28;46328;-76
2021/11/17 13:16:06;;;;;;;;;6.00;5.25;;;;;14.38;69.06;101669.38;5015350;28;46229;-78
2021/11/17 13:18:48;;;;;;;;;7.00;5.25;;;;;14.38;69.09;101657.03;5015317;28;45700;-81
2021/11/17 13:24:16;;;;;;;;;6.00;5.50;;;;;14.43;69.10;101662.81;5015211;28;46191;-78
2021/11/17 13:26:51;;;;;;;;;5.25;4.50;;;;;14.41;69.21;101663.91;5014943;28;47280;-78
2021/11/17 13:29:29;;;;;;;;;6.50;5.25;;;;;14.36;68.72;101658.06;5015073;28;45525;-76
2021/11/17 13:32:04;;;;;;;;;7.50;6.50;;;;;14.45;68.57;101676.75;5015543;28;45702;-77
2021/11/17 13:34:32;;;;;;;;;4.25;4.00;;;;;14.45;68.74;101683.81;5015259;28;45572;-76
2021/11/17 13:40:23;;;;;;;;;4.75;4.50;;;;;14.49;68.46;101691.41;5015091;28;45723;-76
2021/11/17 13:42:49;;;;;;;;;3.00;3.00;;;;;14.46;67.89;101681.09;5015475;28;45637;-75
2021/11/17 13:45:29;;;;;;;;;4.00;4.00;;;;;14.50;68.21;101690.44;5014920;28;47502;-76
2021/11/17 13:47:56;;;;;;;;;6.75;5.00;;;;;14.46;68.50;101689.00;5014917;28;46191;-76
2021/11/17 13:50:26;;;;;;;;;5.00;4.00;;;;;14.51;67.97;101689.50;5016458;28;45784;-75
2021/11/17 13:56:32;;;;;;;;;5.50;4.25;;;;;14.45;67.99;101686.44;5016699;28;45474;-77
2021/11/17 13:58:57;;;;;;;;;4.50;3.25;;;;;14.48;67.83;101694.97;5014938;28;46673;-78
2021/11/17 14:01:24;;;;;;;;;4.00;4.00;;;;;14.52;68.11;101687.72;5015204;28;45532;-81
2021/11/17 14:03:50;;;;;;;;;4.00;4.00;;;;;14.55;67.95;101695.41;5015964;28;45517;-78
2021/11/17 14:06:17;;;;;;;;;6.00;5.00;;;;;14.58;67.62;101695.16;5014548;28;46438;-79
2021/11/17 14:12:06;;;;;;;;;6.00;4.00;;;;;14.62;67.40;101689.59;5014606;28;45510;-77
2021/11/17 14:14:32;;;;;;;;;4.00;4.00;;;;;14.59;66.55;101681.88;5014658;28;46037;-76
2021/11/17 14:16:57;;;;;;;;;4.00;4.00;;;;;14.66;66.59;101695.50;4996620;28;46361;-79
2021/11/17 14:19:23;;;;;;;;;4.50;4.25;;;;;14.64;66.44;101708.78;5014232;28;46170;-78
2021/11/17 14:21:48;;;;;;;;;3.00;3.00;;;;;14.60;66.45;101691.50;5014766;28;45603;-78
2021/11/17 14:24:14;;;;;;;;;4.00;3.00;;;;;14.64;66.63;101697.38;5014451;28;45789;-79
2021/11/17 14:26:42;;;;;;;;;4.75;4.00;;;;;14.61;66.61;101689.69;5013534;28;46256;-78
2021/11/17 14:29:12;;;;;;;;;4.00;4.00;;;;;14.65;66.77;101699.91;5014059;28;46023;-78
2021/11/17 14:31:43;;;;;;;;;4.50;4.00;;;;;14.63;66.85;101693.91;5014083;28;45731;-75
2021/11/17 14:34:09;;;;;;;;;4.00;3.50;;;;;14.68;66.76;101704.97;5014182;28;45461;-78
2021/11/17 14:36:40;;;;;;;;;3.25;2.75;;;;;14.71;66.72;101701.28;5013977;28;46353;-77
2021/11/17 14:42:27;;;;;;;;;5.00;4.75;;;;;14.77;66.67;101706.13;5014420;28;45802;-78
2021/11/17 14:44:53;;;;;;;;;5.50;4.75;;;;;14.80;66.86;101703.25;4997205;28;45731;-79
2021/11/17 14:47:19;;;;;;;;;5.00;4.00;;;;;14.83;66.88;101687.22;5014490;28;46287;-80
2021/11/17 14:49:44;;;;;;;;;5.00;4.00;;;;;14.86;66.54;101688.78;5014096;28;46392;-79
2021/11/17 14:52:13;;;;;;;;;4.25;4.25;;;;;14.88;66.64;101694.81;5014568;28;45651;-79
2021/11/17 14:54:39;;;;;;;;;2.25;2.25;;;;;14.85;66.28;101701.13;5013930;28;45521;-77
2021/11/17 14:57:06;;;;;;;;;4.00;4.00;;;;;14.88;66.39;101702.72;5013868;28;46406;-77
2021/11/17 14:59:32;;;;;;;;;4.00;4.00;;;;;14.86;66.63;101705.47;5013148;28;46351;-75
2021/11/17 15:01:58;;;;;;;;;4.00;4.00;;;;;14.87;66.06;101701.88;5013778;28;45719;-75
2021/11/17 15:04:23;;;;;;;;;4.25;3.75;;;;;14.85;66.00;101703.78;5014205;28;45899;-73
2021/11/17 15:06:50;;;;;;;;;4.75;4.00;;;;;14.85;66.39;101698.50;5015205;28;46305;-74
2021/11/17 15:12:38;;;;;;;;;6.25;3.75;;;;;14.87;65.97;101714.22;5014392;28;45592;-74
2021/11/17 15:15:15;;;;;;;;;3.00;2.00;;;;;14.86;66.17;101704.63;5013776;28;45866;-74
2021/11/17 15:17:41;;;;;;;;;3.50;3.50;;;;;14.83;66.19;101708.34;5013596;28;46363;-76
2021/11/17 15:20:08;;;;;;;;;5.50;4.00;;;;;14.86;66.00;101708.09;5014114;28;46244;-75
2021/11/17 15:22:36;;;;;;;;;4.75;4.00;;;;;14.85;66.11;101708.19;5014076;28;45495;-75
2021/11/17 15:25:05;;;;;;;;;3.25;3.25;;;;;14.83;66.17;101710.13;5014325;28;45987;-73
2021/11/17 15:27:54;;;;;;;;;5.00;5.00;;;;;14.83;65.80;101707.50;5014095;28;46502;-75
2021/11/17 15:30:30;;;;;;;;;4.00;4.00;;;;;14.77;66.00;101707.91;5014442;28;45940;-76
2021/11/17 15:32:56;;;;;;;;;3.75;3.00;;;;;14.79;65.79;101717.41;5013545;28;45793;-76
2021/11/17 15:35:24;;;;;;;;;5.25;4.75;;;;;14.76;65.96;101725.53;5014206;28;45757;-75
2021/11/17 15:37:51;;;;;;;;;4.00;3.00;;;;;14.76;65.64;101732.59;5014730;28;46411;-75
2021/11/17 15:40:19;;;;;;;;;5.00;4.00;;;;;14.70;66.09;101721.53;5014317;28;46892;-77
2021/11/17 15:42:47;;;;;;;;;6.25;5.00;;;;;14.71;66.01;101730.28;5014253;28;45747;-78
2021/11/17 15:45:14;;;;;;;;;6.00;5.25;;;;;14.70;65.65;101731.25;4996407;28;45625;-78
2021/11/17 15:47:39;;;;;;;;;4.00;4.00;;;;;14.64;66.29;101731.66;4997632;28;46479;-77
2021/11/17 15:50:08;;;;;;;;;4.00;4.00;;;;;14.70;66.59;101737.38;5015762;28;47202;-77
2021/11/17 15:52:34;;;;;;;;;6.00;5.00;;;;;14.72;66.33;101732.00;5014080;28;45754;-80
2021/11/17 15:54:59;;;;;;;;;4.25;4.00;;;;;14.74;65.90;101745.91;5013522;28;45536;-80